createdAt,value
2019-06-07T00:00:55.705Z,10.70
2019-06-07T00:03:29.871Z,10.43
2019-06-07T00:05:55.898Z,12.03
2019-06-07T00:08:28.962Z,11.80
2019-06-07T00:10:55.913Z,10.27
2019-06-07T00:13:24.714Z,9.83
2019-06-07T00:15:53.802Z,11.23
2019-06-07T00:18:25.810Z,11.00
2019-06-07T00:20:53.568Z,11.40
2019-06-07T00:23:23.023Z,9.27
2019-06-07T00:25:52.247Z,12.80
2019-06-07T00:28:21.109Z,9.77
2019-06-07T00:30:52.213Z,11.87
2019-06-07T00:33:24.467Z,9.10
2019-06-07T00:35:51.433Z,11.33
2019-06-07T00:38:21.873Z,13.03
2019-06-07T00:40:50.940Z,9.27
2019-06-07T00:43:26.201Z,11.80
2019-06-07T00:45:50.673Z,12.90
2019-06-07T00:48:27.472Z,10.07
2019-06-07T00:50:50.082Z,11.27
2019-06-07T00:53:28.788Z,8.97
2019-06-07T00:55:49.644Z,9.83
2019-06-07T00:58:21.912Z,11.03
2019-06-07T01:00:49.801Z,11.80
2019-06-07T01:03:22.480Z,10.67
2019-06-07T01:05:49.179Z,12.40
2019-06-07T01:08:19.990Z,11.37
2019-06-07T01:10:53.618Z,10.37
2019-06-07T01:13:22.274Z,11.47
2019-06-07T01:15:50.403Z,13.10
2019-06-07T01:18:37.259Z,12.13
2019-06-07T01:20:49.841Z,13.53
2019-06-07T01:23:55.303Z,15.80
2019-06-07T01:25:49.262Z,14.73
2019-06-07T01:28:21.410Z,13.37
2019-06-07T01:30:48.772Z,15.40
2019-06-07T01:33:18.316Z,11.60
2019-06-07T01:35:47.473Z,11.40
2019-06-07T01:38:17.241Z,10.90
2019-06-07T01:40:47.188Z,11.23
2019-06-07T01:43:17.006Z,10.23
2019-06-07T01:45:45.856Z,10.27
2019-06-07T01:48:17.662Z,9.47
2019-06-07T01:50:45.908Z,8.53
2019-06-07T01:53:14.644Z,7.73
2019-06-07T01:55:43.393Z,8.57
2019-06-07T01:58:12.137Z,7.90
2019-06-07T02:00:41.324Z,6.77
2019-06-07T02:03:32.884Z,7.23
2019-06-07T02:06:00.092Z,9.63
2019-06-07T02:08:34.088Z,7.87
2019-06-07T02:10:59.545Z,7.63
2019-06-07T02:13:30.391Z,9.07
2019-06-07T02:15:58.770Z,9.40
2019-06-07T02:18:29.043Z,6.83
2019-06-07T02:20:58.054Z,7.03
2019-06-07T02:23:30.303Z,8.47
2019-06-07T02:25:57.266Z,6.47
2019-06-07T02:28:36.506Z,7.37
2019-06-07T02:31:00.169Z,7.60
2019-06-07T02:33:31.106Z,7.13
2019-06-07T02:35:58.356Z,7.00
2019-06-07T02:38:31.073Z,7.33
2019-06-07T02:40:58.857Z,8.17
2019-06-07T02:43:32.408Z,8.13
2019-06-07T02:46:21.366Z,6.17
2019-06-07T02:48:36.710Z,8.63
2019-06-07T02:50:59.583Z,8.17
2019-06-07T02:53:30.786Z,6.20
2019-06-07T02:56:35.175Z,6.70
2019-06-07T02:58:31.070Z,7.60
2019-06-07T03:01:08.645Z,6.80
2019-06-07T03:03:33.043Z,7.17
2019-06-07T03:06:01.991Z,7.00
2019-06-07T03:08:35.442Z,5.90
2019-06-07T03:11:03.628Z,5.90
2019-06-07T03:13:37.583Z,6.23
2019-06-07T03:16:07.028Z,5.57
2019-06-07T03:19:07.213Z,6.20
2019-06-07T03:21:41.626Z,5.30
2019-06-07T03:24:11.039Z,7.87
2019-06-07T03:27:29.134Z,5.00
2019-06-07T03:29:10.376Z,5.63
2019-06-07T03:31:46.000Z,5.53
2019-06-07T03:34:09.580Z,5.10
2019-06-07T03:36:40.252Z,6.40
2019-06-07T03:39:09.089Z,6.50
2019-06-07T03:41:50.239Z,4.93
2019-06-07T03:44:08.777Z,5.47
2019-06-07T03:46:41.153Z,4.90
2019-06-07T03:49:08.238Z,5.83
2019-06-07T03:51:39.643Z,5.30
2019-06-07T03:54:07.446Z,5.07
2019-06-07T03:56:38.638Z,5.00
2019-06-07T03:59:06.720Z,5.37
2019-06-07T04:01:37.753Z,6.10
2019-06-07T04:04:05.941Z,5.33
2019-06-07T04:06:36.837Z,6.50
2019-06-07T04:09:06.898Z,6.60
2019-06-07T04:11:39.098Z,6.60
2019-06-07T04:14:06.201Z,6.93
2019-06-07T04:16:40.772Z,8.87
2019-06-07T04:19:06.001Z,7.70
2019-06-07T04:21:37.269Z,8.00
2019-06-07T04:24:05.376Z,9.80
2019-06-07T04:26:35.079Z,8.00
2019-06-07T04:31:36.949Z,11.00
2019-06-07T04:34:05.653Z,12.73
2019-06-07T04:36:46.072Z,13.20
2019-06-07T04:39:07.804Z,11.57
2019-06-07T04:41:40.791Z,9.67
2019-06-07T04:44:10.233Z,11.90
2019-06-07T04:46:42.795Z,11.80
2019-06-07T04:49:14.852Z,15.37
2019-06-07T04:51:45.077Z,13.20
2019-06-07T04:54:13.844Z,12.67
2019-06-07T04:56:44.521Z,13.23
2019-06-07T04:59:13.345Z,12.50
2019-06-07T05:01:42.761Z,13.77
2019-06-07T05:04:11.717Z,13.80
2019-06-07T05:06:42.446Z,14.83
2019-06-07T05:09:11.167Z,15.73
2019-06-07T05:11:44.975Z,14.40
2019-06-07T05:14:10.725Z,19.83
2019-06-07T05:16:43.701Z,15.80
2019-06-07T05:19:10.144Z,14.33
2019-06-07T05:21:59.851Z,13.63
2019-06-07T05:24:10.808Z,15.40
2019-06-07T05:26:42.632Z,14.87
2019-06-07T05:29:10.821Z,15.43
2019-06-07T05:31:44.963Z,16.87
2019-06-07T05:34:10.500Z,16.30
2019-06-07T05:36:42.478Z,16.67
2019-06-07T05:39:10.024Z,14.27
2019-06-07T05:41:41.156Z,17.60
2019-06-07T05:44:12.958Z,13.23
2019-06-07T05:46:41.956Z,14.87
2019-06-07T05:49:10.695Z,13.50
2019-06-07T05:51:41.901Z,16.37
2019-06-07T05:54:10.278Z,17.13
2019-06-07T05:56:40.631Z,13.90
2019-06-07T05:59:09.485Z,13.40
2019-06-07T06:01:45.983Z,15.43
2019-06-07T06:04:09.304Z,35.73
2019-06-07T06:06:39.618Z,16.83
2019-06-07T06:09:13.783Z,18.40
2019-06-07T06:11:49.457Z,15.50
2019-06-07T06:14:09.560Z,13.13
2019-06-07T06:16:39.872Z,11.93
2019-06-07T06:19:08.812Z,16.33
2019-06-07T06:21:38.538Z,13.27
2019-06-07T06:24:07.485Z,12.23
2019-06-07T06:26:38.363Z,10.80
2019-06-07T06:29:06.811Z,10.70
2019-06-07T06:31:37.863Z,13.17
2019-06-07T06:34:06.181Z,12.80
2019-06-07T06:36:34.937Z,11.23
2019-06-07T06:39:05.281Z,12.90
2019-06-07T06:41:48.454Z,12.67
2019-06-07T06:44:05.164Z,12.87
2019-06-07T06:46:40.898Z,13.50
2019-06-07T06:49:04.772Z,11.00
2019-06-07T06:51:33.605Z,17.93
2019-06-07T06:54:02.353Z,23.77
2019-06-07T06:56:31.123Z,19.17
2019-06-07T06:59:34.125Z,12.30
2019-06-07T07:01:30.436Z,14.23
2019-06-07T07:04:11.269Z,10.03
2019-06-07T07:06:30.549Z,11.40
2019-06-07T07:08:59.957Z,11.20
2019-06-07T07:11:28.698Z,10.70
2019-06-07T07:13:57.511Z,9.60
2019-06-07T07:16:26.252Z,11.50
2019-06-07T07:18:55.001Z,9.47
2019-06-07T07:21:23.769Z,12.07
2019-06-07T07:24:19.621Z,10.73
2019-06-07T07:26:23.006Z,10.70
2019-06-07T07:28:55.218Z,10.27
2019-06-07T07:31:22.372Z,9.93
2019-06-07T07:36:38.018Z,11.57
2019-06-07T07:39:03.073Z,15.30
2019-06-07T07:41:23.271Z,10.77
2019-06-07T07:44:04.320Z,9.10
2019-06-07T07:46:30.364Z,10.67
2019-06-07T07:48:54.606Z,15.20
2019-06-07T07:51:23.705Z,9.60
2019-06-07T07:54:02.037Z,9.80
2019-06-07T07:56:23.334Z,10.27
2019-06-07T07:58:56.154Z,8.20
2019-06-07T08:01:22.552Z,9.10
2019-06-07T08:03:54.935Z,7.77
2019-06-07T08:06:21.767Z,9.27
2019-06-07T08:08:51.317Z,12.40
2019-06-07T08:11:20.138Z,7.47
2019-06-07T08:13:50.520Z,8.30
2019-06-07T08:16:19.575Z,7.23
2019-06-07T08:18:51.481Z,10.03
2019-06-07T08:21:25.515Z,6.83
2019-06-07T08:23:51.629Z,8.60
2019-06-07T08:26:19.809Z,8.97
2019-06-07T08:28:52.630Z,8.73
2019-06-07T08:31:19.283Z,8.07
2019-06-07T08:33:48.017Z,11.03
2019-06-07T08:36:22.047Z,7.10
2019-06-07T08:38:51.207Z,6.77
2019-06-07T08:41:18.145Z,8.80
2019-06-07T08:43:46.873Z,7.53
2019-06-07T08:46:15.697Z,6.73
2019-06-07T08:48:44.441Z,8.00
2019-06-07T08:51:13.197Z,9.50
2019-06-07T08:53:41.943Z,7.20
2019-06-07T08:56:11.711Z,6.53
2019-06-07T08:58:40.877Z,7.33
2019-06-07T09:01:09.672Z,8.47
2019-06-07T09:03:38.749Z,8.70
2019-06-07T09:06:53.778Z,5.93
2019-06-07T09:08:38.237Z,6.97
2019-06-07T09:11:11.287Z,6.77
2019-06-07T09:13:37.796Z,6.97
2019-06-07T09:16:08.797Z,6.23
2019-06-07T09:18:44.000Z,6.03
2019-06-07T09:21:09.607Z,5.70
2019-06-07T09:23:38.151Z,5.83
2019-06-07T09:26:17.721Z,6.47
2019-06-07T09:28:37.528Z,9.87
2019-06-07T09:31:09.882Z,5.40
2019-06-07T09:33:37.150Z,5.00
2019-06-07T09:36:09.324Z,6.20
2019-06-07T09:38:36.704Z,8.40
2019-06-07T09:41:07.473Z,7.03
2019-06-07T09:46:14.479Z,5.40
2019-06-07T09:51:19.109Z,6.70
2019-06-07T09:53:38.512Z,6.60
2019-06-07T09:56:11.703Z,5.80
2019-06-07T09:58:54.381Z,5.10
2019-06-07T10:01:13.123Z,5.40
2019-06-07T10:03:38.958Z,5.40
2019-06-07T10:06:13.216Z,6.37
2019-06-07T10:09:56.866Z,5.73
2019-06-07T10:11:10.652Z,4.83
2019-06-07T10:13:39.475Z,6.23
2019-06-07T10:16:08.850Z,5.43
2019-06-07T10:18:37.796Z,8.17
2019-06-07T10:21:07.835Z,18.30
2019-06-07T10:23:37.213Z,6.90
2019-06-07T10:26:06.152Z,6.90
2019-06-07T10:28:34.953Z,6.73
2019-06-07T10:31:04.524Z,5.83
2019-06-07T10:33:33.393Z,9.40
2019-06-07T10:36:02.465Z,6.57
2019-06-07T10:38:31.366Z,6.03
2019-06-07T10:41:00.766Z,7.33
2019-06-07T10:43:29.663Z,6.27
2019-06-07T10:45:58.413Z,6.40
2019-06-07T10:48:27.449Z,5.67
2019-06-07T10:50:56.217Z,6.13
2019-06-07T10:53:24.975Z,6.57
2019-06-07T10:55:53.974Z,6.17
2019-06-07T10:58:22.750Z,6.20
2019-06-07T11:00:51.625Z,7.23
2019-06-07T11:03:20.681Z,8.50
2019-06-07T11:05:49.652Z,7.00
2019-06-07T11:08:18.480Z,5.70
2019-06-07T11:10:47.462Z,7.57
2019-06-07T11:13:16.294Z,7.37
2019-06-07T11:15:45.291Z,6.53
2019-06-07T11:18:14.436Z,7.07
2019-06-07T11:20:43.615Z,5.93
2019-06-07T11:23:12.380Z,11.60
2019-06-07T11:25:41.102Z,6.07
2019-06-07T11:28:10.564Z,6.80
2019-06-07T11:30:39.585Z,5.73
2019-06-07T11:33:08.518Z,8.80
2019-06-07T11:35:37.403Z,6.57
2019-06-07T11:38:06.398Z,6.70
2019-06-07T11:40:36.157Z,6.53
2019-06-07T11:43:06.478Z,6.80
2019-06-07T11:45:35.468Z,5.93
2019-06-07T11:48:04.293Z,6.57
2019-06-07T11:50:33.058Z,7.27
2019-06-07T11:53:01.841Z,7.53
2019-06-07T11:55:30.582Z,6.27
2019-06-07T11:57:59.334Z,6.80
2019-06-07T12:00:28.143Z,6.97
2019-06-07T12:02:56.968Z,6.87
2019-06-07T12:05:25.717Z,7.50
2019-06-07T12:07:57.052Z,6.90
2019-06-07T12:10:25.121Z,7.63
2019-06-07T12:12:53.863Z,6.23
2019-06-07T12:15:22.697Z,7.60
2019-06-07T12:17:51.917Z,7.27
2019-06-07T12:20:21.205Z,6.60
2019-06-07T12:22:49.950Z,6.00
2019-06-07T12:25:24.288Z,7.47
2019-06-07T12:27:49.470Z,7.70
2019-06-07T12:30:26.786Z,7.13
2019-06-07T12:32:49.063Z,6.90
2019-06-07T12:35:17.936Z,7.77
2019-06-07T12:37:46.732Z,7.73
2019-06-07T12:40:26.604Z,8.07
2019-06-07T12:42:46.944Z,7.90
2019-06-07T12:45:36.710Z,7.00
2019-06-07T12:47:47.493Z,7.80
2019-06-07T12:50:17.411Z,9.30
2019-06-07T12:52:46.570Z,13.00
2019-06-07T12:55:18.242Z,9.63
2019-06-07T12:57:47.189Z,8.50
2019-06-07T13:00:18.073Z,10.10
2019-06-07T13:02:47.064Z,10.37
2019-06-07T13:05:17.908Z,11.20
2019-06-07T13:07:47.388Z,8.53
2019-06-07T13:10:20.080Z,7.53
2019-06-07T13:12:49.201Z,7.80
2019-06-07T13:15:20.066Z,8.20
2019-06-07T13:17:48.701Z,8.60
2019-06-07T13:20:18.195Z,8.10
2019-06-07T13:22:47.469Z,8.50
2019-06-07T13:25:18.454Z,8.07
2019-06-07T13:27:47.444Z,7.77
2019-06-07T13:30:16.948Z,8.30
2019-06-07T13:32:45.955Z,9.03
2019-06-07T13:35:23.762Z,8.83
2019-06-07T13:37:52.598Z,8.10
2019-06-07T13:40:23.255Z,7.27
2019-06-07T13:42:52.489Z,8.33
2019-06-07T13:45:22.290Z,8.97
2019-06-07T13:47:51.497Z,8.20
2019-06-07T13:50:21.675Z,8.30
2019-06-07T13:52:50.852Z,8.47
2019-06-07T13:55:19.990Z,12.53
2019-06-07T13:57:49.137Z,8.30
2019-06-07T14:00:19.021Z,8.43
2019-06-07T14:02:48.601Z,10.67
2019-06-07T14:05:18.697Z,8.87
2019-06-07T14:07:47.639Z,8.10
2019-06-07T14:10:16.652Z,7.77
2019-06-07T14:12:45.387Z,7.87
2019-06-07T14:15:14.505Z,8.63
2019-06-07T14:17:43.499Z,8.43
2019-06-07T14:20:12.557Z,8.40
2019-06-07T14:22:41.586Z,8.43
2019-06-07T14:25:10.808Z,8.20
2019-06-07T14:27:39.672Z,8.60
2019-06-07T14:30:10.633Z,7.90
2019-06-07T14:32:39.446Z,7.63
2019-06-07T14:35:08.549Z,7.90
2019-06-07T14:37:37.523Z,8.13
2019-06-07T14:40:07.395Z,9.50
2019-06-07T14:42:36.286Z,7.90
2019-06-07T14:45:07.090Z,7.67
2019-06-07T14:47:36.053Z,8.90
2019-06-07T14:50:06.156Z,8.27
2019-06-07T14:52:35.194Z,7.27
2019-06-07T14:55:04.554Z,7.60
2019-06-07T14:57:33.904Z,7.50
2019-06-07T15:00:10.946Z,7.50
2019-06-07T15:02:36.562Z,8.17
2019-06-07T15:05:04.913Z,7.77
2019-06-07T15:07:34.863Z,8.30
2019-06-07T15:10:04.898Z,8.43
2019-06-07T15:12:35.255Z,7.17
2019-06-07T15:15:04.658Z,8.33
2019-06-07T15:17:35.324Z,7.23
2019-06-07T15:20:05.324Z,7.57
2019-06-07T15:22:34.144Z,7.10
2019-06-07T15:25:03.603Z,7.77
2019-06-07T15:27:33.249Z,7.17
2019-06-07T15:30:09.523Z,7.67
2019-06-07T15:32:32.872Z,7.73
2019-06-07T15:35:03.373Z,7.60
2019-06-07T15:37:32.561Z,7.47
2019-06-07T15:40:16.523Z,7.60
2019-06-07T15:43:04.841Z,8.47
2019-06-07T15:45:36.053Z,8.13
2019-06-07T15:48:04.951Z,10.33
2019-06-07T15:50:38.315Z,8.20
2019-06-07T15:53:10.601Z,7.47
2019-06-07T15:55:45.604Z,7.23
2019-06-07T15:58:13.919Z,9.97
2019-06-07T16:00:45.525Z,7.33
2019-06-07T16:03:16.867Z,8.37
2019-06-07T16:05:48.794Z,7.20
2019-06-07T16:11:20.234Z,8.00
2019-06-07T16:13:55.442Z,7.40
2019-06-07T16:16:31.032Z,7.00
2019-06-07T16:19:00.440Z,7.93
2019-06-07T16:21:29.428Z,7.67
2019-06-07T16:23:58.483Z,7.30
2019-06-07T16:26:27.649Z,11.30
2019-06-07T16:29:00.863Z,7.90
2019-06-07T16:31:29.810Z,7.07
2019-06-07T16:33:58.774Z,11.17
2019-06-07T16:36:28.170Z,8.33
2019-06-07T16:38:57.325Z,8.27
2019-06-07T16:41:26.793Z,9.20
2019-06-07T16:43:56.691Z,8.67
2019-06-07T16:46:40.636Z,8.83
2019-06-07T16:49:09.772Z,10.63
2019-06-07T16:51:39.122Z,13.87
2019-06-07T16:54:08.910Z,9.33
2019-06-07T16:56:43.372Z,11.60
2019-06-07T16:59:08.366Z,7.43
2019-06-07T17:01:52.662Z,4.80
2019-06-07T17:04:21.421Z,4.10
2019-06-07T17:06:50.928Z,5.40
2019-06-07T17:09:22.584Z,6.47
2019-06-07T17:11:59.468Z,6.10
2019-06-07T17:14:35.538Z,6.60
2019-06-07T17:17:10.663Z,5.50
2019-06-07T17:19:40.921Z,5.87
2019-06-07T17:22:14.832Z,14.23
2019-06-07T17:24:43.361Z,6.00
2019-06-07T17:27:15.011Z,4.80
2019-06-07T17:29:45.728Z,12.70
2019-06-07T17:32:17.576Z,11.57
2019-06-07T17:34:46.418Z,11.23
2019-06-07T17:37:17.150Z,4.73
2019-06-07T17:39:48.713Z,8.97
2019-06-07T17:42:22.139Z,7.07
2019-06-07T17:44:52.655Z,4.33
2019-06-07T17:47:21.466Z,7.93
2019-06-07T17:49:52.149Z,5.07
2019-06-07T17:52:23.207Z,3.30
2019-06-07T17:54:52.648Z,2.60
2019-06-07T17:57:21.648Z,3.90
2019-06-07T17:59:59.128Z,5.83
2019-06-07T18:02:28.177Z,7.97
2019-06-07T18:04:56.990Z,1.17
2019-06-07T18:07:27.229Z,6.30
2019-06-07T18:09:57.932Z,2.37
2019-06-07T18:12:26.838Z,2.50
2019-06-07T18:14:55.669Z,5.43
2019-06-07T18:17:34.088Z,1.77
2019-06-07T18:19:55.352Z,2.00
2019-06-07T18:22:24.262Z,1.93
2019-06-07T18:24:53.175Z,1.53
2019-06-07T18:27:22.055Z,9.57
2019-06-07T18:29:50.825Z,1.07
2019-06-07T18:32:19.887Z,3.47
2019-06-07T18:34:50.762Z,2.30
2019-06-07T18:37:19.879Z,3.13
2019-06-07T18:39:48.993Z,3.93
2019-06-07T18:42:17.923Z,1.43
2019-06-07T18:44:46.967Z,2.50
2019-06-07T18:47:15.737Z,1.80
2019-06-07T18:49:45.065Z,4.93
2019-06-07T18:52:17.995Z,2.30
2019-06-07T18:54:46.902Z,1.40
2019-06-07T18:57:16.149Z,3.43
2019-06-07T18:59:56.551Z,2.50
2019-06-07T19:02:25.904Z,1.90
2019-06-07T19:04:56.340Z,1.33
2019-06-07T19:07:27.660Z,11.70
2019-06-07T19:09:56.915Z,1.27
2019-06-07T19:12:25.733Z,1.17
2019-06-07T19:14:55.552Z,1.30
2019-06-07T19:17:24.509Z,1.50
2019-06-07T19:19:54.190Z,1.50
2019-06-07T19:22:23.190Z,1.13
2019-06-07T19:24:52.114Z,2.30
2019-06-07T19:27:20.977Z,2.30
2019-06-07T19:29:53.104Z,1.63
2019-06-07T19:32:23.805Z,2.17
2019-06-07T19:34:53.223Z,1.90
2019-06-07T19:37:22.691Z,1.90
2019-06-07T19:39:51.764Z,1.40
2019-06-07T19:42:20.612Z,1.73
2019-06-07T19:45:09.732Z,6.33
2019-06-07T19:47:27.029Z,2.80
2019-06-07T19:49:58.795Z,3.93
2019-06-07T19:52:27.658Z,4.40
2019-06-07T19:54:57.576Z,1.90
2019-06-07T19:57:28.094Z,1.80
2019-06-07T19:59:58.017Z,0.80
2019-06-07T20:02:29.913Z,1.80
2019-06-07T20:05:03.730Z,1.70
2019-06-07T20:07:31.648Z,2.07
2019-06-07T20:10:01.068Z,2.17
2019-06-07T20:12:29.881Z,1.33
2019-06-07T20:15:21.501Z,3.33
2019-06-07T20:17:30.137Z,0.80
2019-06-07T20:20:00.362Z,3.20
2019-06-07T20:22:29.385Z,1.10
2019-06-07T20:24:58.858Z,1.93
2019-06-07T20:27:28.702Z,8.20
2019-06-07T20:29:58.182Z,16.97
2019-06-07T20:32:27.510Z,2.77
2019-06-07T20:34:57.609Z,1.30
2019-06-07T20:37:26.492Z,0.90
2019-06-07T20:39:56.951Z,1.23
2019-06-07T20:42:26.316Z,2.17
2019-06-07T20:44:55.411Z,1.10
2019-06-07T20:47:24.170Z,2.00
2019-06-07T20:49:52.964Z,1.37
2019-06-07T20:52:21.856Z,5.50
2019-06-07T20:54:50.643Z,2.93
2019-06-07T20:57:19.875Z,1.50
2019-06-07T20:59:48.613Z,0.90
2019-06-07T21:02:17.681Z,1.10
2019-06-07T21:04:46.513Z,1.40
2019-06-07T21:07:15.497Z,2.33
2019-06-07T21:09:44.258Z,6.83
2019-06-07T21:12:12.988Z,3.60
2019-06-07T21:14:41.721Z,1.13
2019-06-07T21:17:10.541Z,2.43
2019-06-07T21:19:39.521Z,2.43
2019-06-07T21:22:08.847Z,1.80
2019-06-07T21:24:37.962Z,4.43
2019-06-07T21:27:07.410Z,1.57
2019-06-07T21:29:36.583Z,2.20
2019-06-07T21:32:05.492Z,1.13
2019-06-07T21:34:34.448Z,0.93
2019-06-07T21:37:03.773Z,3.17
2019-06-07T21:39:32.965Z,2.47
2019-06-07T21:42:02.205Z,0.90
2019-06-07T21:44:31.241Z,1.17
2019-06-07T21:47:00.264Z,0.80
2019-06-07T21:49:29.229Z,1.03
2019-06-07T21:51:58.007Z,1.17
2019-06-07T21:54:27.022Z,1.47
2019-06-07T21:56:55.784Z,1.10
2019-06-07T21:59:24.764Z,4.63
2019-06-07T22:01:53.937Z,2.43
2019-06-07T22:04:22.689Z,1.27
2019-06-07T22:06:51.931Z,2.80
2019-06-07T22:09:20.959Z,1.13
2019-06-07T22:11:50.020Z,1.77
2019-06-07T22:14:19.022Z,2.27
2019-06-07T22:16:47.981Z,2.57
2019-06-07T22:19:16.723Z,1.47
2019-06-07T22:21:59.246Z,1.00
2019-06-07T22:24:15.912Z,1.70
2019-06-07T22:26:44.650Z,1.90
2019-06-07T22:29:14.436Z,1.40
2019-06-07T22:31:43.278Z,2.80
2019-06-07T22:34:12.773Z,0.63
2019-06-07T22:36:41.902Z,1.90
2019-06-07T22:39:11.661Z,1.73
2019-06-07T22:41:40.604Z,1.80
2019-06-07T22:44:10.740Z,1.70
2019-06-07T22:46:39.878Z,1.07
2019-06-07T22:49:09.184Z,1.17
2019-06-07T22:51:38.101Z,1.50
2019-06-07T22:54:07.575Z,3.00
2019-06-07T22:56:54.335Z,1.10
2019-06-07T22:59:23.337Z,1.10
2019-06-07T23:01:52.077Z,1.17
2019-06-07T23:04:20.921Z,2.90
2019-06-07T23:06:49.677Z,1.00
2019-06-07T23:09:19.764Z,2.00
2019-06-07T23:11:48.641Z,4.83
2019-06-07T23:14:17.541Z,4.73
2019-06-07T23:16:55.592Z,1.27
2019-06-07T23:19:17.951Z,1.60
2019-06-07T23:21:47.252Z,2.17
2019-06-07T23:24:16.474Z,1.17
2019-06-07T23:26:45.373Z,2.77
2019-06-07T23:29:14.525Z,1.40
2019-06-07T23:31:43.544Z,2.03
2019-06-07T23:34:13.008Z,2.20
2019-06-07T23:36:42.090Z,4.40
2019-06-07T23:39:11.072Z,1.93
2019-06-07T23:41:39.888Z,1.27
2019-06-07T23:44:08.873Z,1.73
2019-06-07T23:46:37.634Z,2.63
2019-06-07T23:49:06.651Z,4.43
2019-06-07T23:51:35.628Z,3.13
2019-06-07T23:54:04.467Z,1.37
2019-06-07T23:56:33.432Z,2.10
2019-06-07T23:59:02.429Z,0.80
